createdAt,value
2019-03-27T00:00:14.805Z,96643.8
2019-03-27T00:01:17.293Z,96648.9
2019-03-27T00:02:19.495Z,96644.3
2019-03-27T00:03:21.971Z,96646.8
2019-03-27T00:04:24.442Z,96638.1
2019-03-27T00:05:26.632Z,96640.6
2019-03-27T00:06:28.850Z,96637.6
2019-03-27T00:07:31.316Z,96641.3
2019-03-27T00:08:33.221Z,96635.2
2019-03-27T00:09:35.433Z,96632.8
2019-03-27T00:10:37.900Z,96633.8
2019-03-27T00:11:40.372Z,96635.7
2019-03-27T00:12:42.865Z,96642.6
2019-03-27T00:13:45.081Z,96640.2
2019-03-27T00:14:47.572Z,96639.1
2019-03-27T00:15:50.056Z,96638.9
2019-03-27T00:16:52.542Z,96637.8
2019-03-27T00:17:55.057Z,96629
2019-03-27T00:18:57.575Z,96635.4
2019-03-27T00:20:00.157Z,96633.6
2019-03-27T00:21:02.425Z,96637.5
2019-03-27T00:22:04.600Z,96633.5
2019-03-27T00:23:07.072Z,96638.7
2019-03-27T00:24:09.276Z,96640.1
2019-03-27T00:25:11.506Z,96640.8
2019-03-27T00:26:13.719Z,96638.7
2019-03-27T00:27:16.200Z,96640.1
2019-03-27T00:28:18.674Z,96638.3
2019-03-27T00:29:20.874Z,96639.1
2019-03-27T00:30:23.089Z,96639.2
2019-03-27T00:31:25.626Z,96636.8
2019-03-27T00:32:28.108Z,96638.1
2019-03-27T00:33:30.621Z,96636.4
2019-03-27T00:34:33.092Z,96637.8
2019-03-27T00:35:35.037Z,96640
2019-03-27T00:36:37.528Z,96638.6
2019-03-27T00:37:40.002Z,96639.2
2019-03-27T00:38:42.476Z,96641.8
2019-03-27T00:39:44.971Z,96647.1
2019-03-27T00:40:47.462Z,96643.1
2019-03-27T00:41:49.642Z,96644.5
2019-03-27T00:42:51.808Z,96645.4
2019-03-27T00:43:54.014Z,96644.9
2019-03-27T00:44:56.530Z,96646.4
2019-03-27T00:45:59.010Z,96641.6
2019-03-27T00:47:01.479Z,96643.8
2019-03-27T00:48:03.676Z,96646.5
2019-03-27T00:49:05.848Z,96639.3
2019-03-27T00:50:08.316Z,96642.6
2019-03-27T00:51:10.803Z,96643
2019-03-27T00:52:13.282Z,96637.8
2019-03-27T00:53:15.462Z,96643.1
2019-03-27T00:54:17.928Z,96641
2019-03-27T00:55:20.416Z,96636.1
2019-03-27T00:56:22.893Z,96636
2019-03-27T00:57:25.365Z,96637.4
2019-03-27T00:58:27.843Z,96637.5
2019-03-27T00:59:30.313Z,96635.6
2019-03-27T01:00:32.781Z,96640.2
2019-03-27T01:01:35.260Z,96638.9
2019-03-27T01:02:37.734Z,96637.5
2019-03-27T01:03:39.935Z,96636.3
2019-03-27T01:04:42.423Z,96642.4
2019-03-27T01:05:44.893Z,96640.5
2019-03-27T01:06:47.371Z,96635.1
2019-03-27T01:07:54.311Z,96637
2019-03-27T01:08:56.509Z,96632.4
2019-03-27T01:09:58.694Z,96633.7
2019-03-27T01:11:00.903Z,96633.5
2019-03-27T01:12:03.380Z,96629.7
2019-03-27T01:13:05.571Z,96632.6
2019-03-27T01:14:08.113Z,96634.9
2019-03-27T01:15:10.320Z,96629.6
2019-03-27T01:16:12.823Z,96628.6
2019-03-27T01:17:15.337Z,96632.4
2019-03-27T01:18:17.810Z,96630
2019-03-27T01:19:20.285Z,96632.4
2019-03-27T01:20:22.779Z,96629.6
2019-03-27T01:21:25.259Z,96631.4
2019-03-27T01:22:27.739Z,96630.2
2019-03-27T01:23:30.211Z,96626.8
2019-03-27T01:24:32.153Z,96630.2
2019-03-27T01:25:34.628Z,96624.6
2019-03-27T01:26:36.829Z,96621.3
2019-03-27T01:27:39.036Z,96619.1
2019-03-27T01:28:41.271Z,96621.3
2019-03-27T01:29:43.754Z,96622.8
2019-03-27T01:30:45.973Z,96622
2019-03-27T01:31:48.463Z,96621.4
2019-03-27T01:32:50.943Z,96618
2019-03-27T01:33:53.149Z,96619.9
2019-03-27T01:34:55.623Z,96616.6
2019-03-27T01:35:57.813Z,96615.4
2019-03-27T01:37:00.287Z,96611.6
2019-03-27T01:38:02.757Z,96614.1
2019-03-27T01:39:05.234Z,96614.8
2019-03-27T01:40:07.723Z,96618.5
2019-03-27T01:41:09.935Z,96620.7
2019-03-27T01:42:12.411Z,96619.5
2019-03-27T01:43:14.609Z,96616
2019-03-27T01:44:17.077Z,96617.8
2019-03-27T01:45:19.541Z,96620.6
2019-03-27T01:46:21.738Z,96619.6
2019-03-27T01:47:24.203Z,96619.4
2019-03-27T01:48:26.402Z,96618.8
2019-03-27T01:49:28.592Z,96618.4
2019-03-27T01:50:31.070Z,96616
2019-03-27T01:51:33.267Z,96616.7
2019-03-27T01:52:35.747Z,96618.2
2019-03-27T01:53:38.224Z,96618.5
2019-03-27T01:54:40.123Z,96622.6
2019-03-27T01:55:42.591Z,96624.7
2019-03-27T01:56:45.068Z,96623.8
2019-03-27T01:57:47.288Z,96623.9
2019-03-27T01:58:49.199Z,96628.1
2019-03-27T01:59:51.133Z,96625.1
2019-03-27T02:00:53.611Z,96623.8
2019-03-27T02:01:55.813Z,96623.5
2019-03-27T02:02:58.296Z,96621.4
2019-03-27T02:04:00.290Z,96626.6
2019-03-27T02:05:02.465Z,96626.1
2019-03-27T02:06:04.943Z,96626.7
2019-03-27T02:07:07.463Z,96628.2
2019-03-27T02:08:09.937Z,96629.5
2019-03-27T02:09:12.152Z,96631.1
2019-03-27T02:10:14.337Z,96632.9
2019-03-27T02:11:16.817Z,96635.1
2019-03-27T02:12:19.294Z,96634.2
2019-03-27T02:13:21.771Z,96635.8
2019-03-27T02:14:23.979Z,96637.8
2019-03-27T02:15:26.146Z,96643.3
2019-03-27T02:16:28.618Z,96641.7
2019-03-27T02:17:30.563Z,96640
2019-03-27T02:18:33.069Z,96636.8
2019-03-27T02:19:35.287Z,96635.5
2019-03-27T02:20:37.751Z,96631.2
2019-03-27T02:21:40.228Z,96631.9
2019-03-27T02:22:42.405Z,96631.3
2019-03-27T02:23:44.701Z,96631.3
2019-03-27T02:24:47.231Z,96631.1
2019-03-27T02:25:49.735Z,96629.5
2019-03-27T02:26:51.943Z,96633
2019-03-27T02:27:54.141Z,96631.7
2019-03-27T02:28:56.607Z,96625.8
2019-03-27T02:29:58.809Z,96633
2019-03-27T02:31:01.305Z,96632.4
2019-03-27T02:32:03.517Z,96637.9
2019-03-27T02:33:06.018Z,96630.7
2019-03-27T02:34:08.348Z,96632.5
2019-03-27T02:35:10.561Z,96635.8
2019-03-27T02:36:12.504Z,96636.3
2019-03-27T02:37:15.002Z,96638
2019-03-27T02:38:17.031Z,96641.3
2019-03-27T02:39:19.537Z,96642.1
2019-03-27T02:40:22.007Z,96638.3
2019-03-27T02:41:24.473Z,96638.7
2019-03-27T02:42:26.959Z,96638.1
2019-03-27T02:43:29.434Z,96639.1
2019-03-27T02:44:31.917Z,96637.8
2019-03-27T02:45:34.397Z,96642.5
2019-03-27T02:46:36.884Z,96638.4
2019-03-27T02:47:39.374Z,96641.7
2019-03-27T02:48:41.852Z,96636.6
2019-03-27T02:49:44.385Z,96641.3
2019-03-27T02:50:46.287Z,96641.2
2019-03-27T02:51:48.586Z,96641.8
2019-03-27T02:52:51.116Z,96641.8
2019-03-27T02:53:53.595Z,96642
2019-03-27T02:54:56.102Z,96643.6
2019-03-27T02:55:58.307Z,96645.3
2019-03-27T02:57:00.820Z,96641.7
2019-03-27T02:58:03.294Z,96645.4
2019-03-27T02:59:05.771Z,96644.8
2019-03-27T03:00:08.005Z,96646.5
2019-03-27T03:01:10.207Z,96642.2
2019-03-27T03:02:12.672Z,96646.8
2019-03-27T03:03:15.165Z,96640.2
2019-03-27T03:04:17.659Z,96642.6
2019-03-27T03:05:20.140Z,96641.1
2019-03-27T03:06:22.598Z,96639
2019-03-27T03:07:24.484Z,96643.5
2019-03-27T03:08:26.710Z,96641.3
2019-03-27T03:09:28.916Z,96643
2019-03-27T03:10:31.479Z,96639.1
2019-03-27T03:11:33.680Z,96637.5
2019-03-27T03:12:36.176Z,96639.3
2019-03-27T03:13:38.388Z,96641.6
2019-03-27T03:14:40.855Z,96639.3
2019-03-27T03:15:43.330Z,96637.7
2019-03-27T03:16:45.820Z,96640.7
2019-03-27T03:17:48.033Z,96641.5
2019-03-27T03:18:50.361Z,96637.9
2019-03-27T03:19:52.557Z,96637
2019-03-27T03:20:55.014Z,96639.1
2019-03-27T03:21:57.241Z,96635.5
2019-03-27T03:22:59.717Z,96636.4
2019-03-27T03:24:01.777Z,96633.7
2019-03-27T03:25:04.276Z,96627.9
2019-03-27T03:26:06.492Z,96631.6
2019-03-27T03:27:08.968Z,96632.1
2019-03-27T03:28:11.432Z,96629.5
2019-03-27T03:29:13.622Z,96627.3
2019-03-27T03:30:16.125Z,96627.4
2019-03-27T03:31:18.703Z,96628
2019-03-27T03:32:21.227Z,96629
2019-03-27T03:33:23.467Z,96634.9
2019-03-27T03:34:26.004Z,96635.4
2019-03-27T03:35:28.282Z,96629.1
2019-03-27T03:36:30.762Z,96630.8
2019-03-27T03:37:32.967Z,96636.3
2019-03-27T03:38:35.165Z,96636.5
2019-03-27T03:39:37.661Z,96633.5
2019-03-27T03:40:40.135Z,96633.6
2019-03-27T03:41:42.377Z,96633.2
2019-03-27T03:42:44.877Z,96640.3
2019-03-27T03:43:47.333Z,96630.8
2019-03-27T03:44:49.801Z,96633.3
2019-03-27T03:45:52.315Z,96632.1
2019-03-27T03:47:59.781Z,96636.6
2019-03-27T03:49:02.274Z,96637.6
2019-03-27T03:50:04.741Z,96633.5
2019-03-27T03:51:06.687Z,96634
2019-03-27T03:52:09.163Z,96634.1
2019-03-27T03:53:11.704Z,96633.4
2019-03-27T03:54:14.275Z,96635.2
2019-03-27T03:55:16.749Z,96635.9
2019-03-27T03:56:19.224Z,96632.8
2019-03-27T03:57:21.720Z,96635.1
2019-03-27T03:58:24.197Z,96632.4
2019-03-27T03:59:26.410Z,96636.1
2019-03-27T04:00:28.912Z,96634.4
2019-03-27T04:01:31.399Z,96639.6
2019-03-27T04:02:33.890Z,96642.4
2019-03-27T04:03:36.364Z,96637.7
2019-03-27T04:04:39.073Z,96639.8
2019-03-27T04:05:41.012Z,96637.9
2019-03-27T04:06:43.492Z,96638
2019-03-27T04:07:45.977Z,96638.4
2019-03-27T04:08:48.481Z,96638.1
2019-03-27T04:09:50.951Z,96637.5
2019-03-27T04:10:53.433Z,96636.4
2019-03-27T04:11:55.914Z,96635.5
2019-03-27T04:12:58.378Z,96636.9
2019-03-27T04:14:00.882Z,96639.6
2019-03-27T04:15:03.001Z,96639.9
2019-03-27T04:16:05.538Z,96644.3
2019-03-27T04:18:12.720Z,96643.4
2019-03-27T04:19:15.204Z,96644
2019-03-27T04:20:17.416Z,96647.6
2019-03-27T04:21:19.914Z,96642.9
2019-03-27T04:22:22.418Z,96648.4
2019-03-27T04:23:24.891Z,96645
2019-03-27T04:24:27.378Z,96645.8
2019-03-27T04:25:29.844Z,96647.9
2019-03-27T04:26:36.783Z,96645.8
2019-03-27T04:27:38.998Z,96645.4
2019-03-27T04:28:41.481Z,96652.1
2019-03-27T04:29:43.690Z,96646.5
2019-03-27T04:30:46.161Z,96648.5
2019-03-27T04:31:48.122Z,96649.1
2019-03-27T04:32:50.604Z,96647.7
2019-03-27T04:33:53.104Z,96649.5
2019-03-27T04:34:56.018Z,96647.3
2019-03-27T04:35:58.545Z,96646.7
2019-03-27T04:37:01.057Z,96647.9
2019-03-27T04:38:03.532Z,96652.9
2019-03-27T04:39:05.821Z,96646.3
2019-03-27T04:40:08.295Z,96648.8
2019-03-27T04:41:10.771Z,96648.3
2019-03-27T04:42:12.700Z,96651.2
2019-03-27T04:43:14.919Z,96650.1
2019-03-27T04:44:17.397Z,96654.2
2019-03-27T04:45:19.883Z,96653.8
2019-03-27T04:46:21.795Z,96653.4
2019-03-27T04:48:29.384Z,96653.7
2019-03-27T04:49:31.565Z,96656.2
2019-03-27T04:50:34.046Z,96653.3
2019-03-27T04:51:36.527Z,96654.7
2019-03-27T04:52:38.738Z,96652.5
2019-03-27T04:53:40.668Z,96656.7
2019-03-27T04:54:43.151Z,96653.8
2019-03-27T04:55:44.824Z,96655.9
2019-03-27T04:56:47.294Z,96655.3
2019-03-27T04:57:49.761Z,96657.1
2019-03-27T04:58:52.237Z,96654.4
2019-03-27T04:59:54.439Z,96657.7
2019-03-27T05:00:56.361Z,96657.7
2019-03-27T05:01:58.909Z,96658.7
2019-03-27T05:03:01.400Z,96657.6
2019-03-27T05:04:03.616Z,96659.6
2019-03-27T05:05:05.839Z,96659.6
2019-03-27T05:06:08.312Z,96661.4
2019-03-27T05:08:16.758Z,96665.2
2019-03-27T05:09:19.254Z,96662.4
2019-03-27T05:10:21.733Z,96663.5
2019-03-27T05:11:24.214Z,96663.6
2019-03-27T05:12:26.384Z,96667.1
2019-03-27T05:13:28.319Z,96668.2
2019-03-27T05:14:30.257Z,96667.9
2019-03-27T05:15:32.455Z,96670.9
2019-03-27T05:16:34.921Z,96671.9
2019-03-27T05:18:42.406Z,96673.7
2019-03-27T05:19:44.879Z,96673.5
2019-03-27T05:20:47.365Z,96674.5
2019-03-27T05:21:49.846Z,96676.1
2019-03-27T05:22:52.036Z,96672.2
2019-03-27T05:23:54.210Z,96675.4
2019-03-27T05:24:56.735Z,96680.1
2019-03-27T05:25:59.213Z,96676.8
2019-03-27T05:27:01.411Z,96685.3
2019-03-27T05:28:03.625Z,96679.2
2019-03-27T05:29:05.545Z,96682.9
2019-03-27T05:30:08.019Z,96681.6
2019-03-27T05:31:10.496Z,96682.3
2019-03-27T05:32:12.975Z,96683.8
2019-03-27T05:33:15.452Z,96684.7
2019-03-27T05:34:17.946Z,96683.7
2019-03-27T05:35:20.409Z,96683.6
2019-03-27T05:36:22.874Z,96683.5
2019-03-27T05:37:25.367Z,96682.3
2019-03-27T05:38:27.830Z,96687.3
2019-03-27T05:39:29.735Z,96692.6
2019-03-27T05:40:31.990Z,96684.2
2019-03-27T05:41:34.477Z,96689.5
2019-03-27T05:42:36.938Z,96695.1
2019-03-27T05:43:39.413Z,96697.8
2019-03-27T05:44:41.895Z,96698.6
2019-03-27T05:45:44.384Z,96696.2
2019-03-27T05:46:46.853Z,96695.6
2019-03-27T05:48:54.034Z,96692
2019-03-27T05:49:56.503Z,96694.8
2019-03-27T05:50:58.994Z,96692.2
2019-03-27T05:52:01.465Z,96692.5
2019-03-27T05:53:03.957Z,96695.5
2019-03-27T05:54:06.145Z,96696.6
2019-03-27T05:55:08.623Z,96697.5
2019-03-27T05:56:11.083Z,96698.1
2019-03-27T05:57:12.982Z,96697.4
2019-03-27T05:58:15.460Z,96700.8
2019-03-27T05:59:17.942Z,96695.8
2019-03-27T06:00:20.421Z,96697.8
2019-03-27T06:01:22.919Z,96701
2019-03-27T06:02:25.159Z,96700.8
2019-03-27T06:03:27.633Z,96701.5
2019-03-27T06:04:29.832Z,96704.7
2019-03-27T06:05:32.378Z,96703.3
2019-03-27T06:06:34.861Z,96702.1
2019-03-27T06:07:37.090Z,96702.3
2019-03-27T06:08:38.711Z,96706.9
2019-03-27T06:09:40.917Z,96703.9
2019-03-27T06:10:43.483Z,96705.7
2019-03-27T06:11:45.648Z,96707.3
2019-03-27T06:12:47.865Z,96705
2019-03-27T06:13:50.371Z,96712.9
2019-03-27T06:14:52.856Z,96710.6
2019-03-27T06:15:55.387Z,96715.1
2019-03-27T06:16:57.595Z,96713.6
2019-03-27T06:19:05.061Z,96715.6
2019-03-27T06:20:07.257Z,96716.1
2019-03-27T06:21:09.727Z,96710.7
2019-03-27T06:22:14.931Z,96714.7
2019-03-27T06:23:18.191Z,96716.9
2019-03-27T06:24:20.666Z,96719.7
2019-03-27T06:25:22.849Z,96716.8
2019-03-27T06:26:25.325Z,96715.6
2019-03-27T06:27:27.517Z,96717
2019-03-27T06:28:29.732Z,96716.4
2019-03-27T06:29:32.230Z,96717.7
2019-03-27T06:30:34.705Z,96720.3
2019-03-27T06:31:37.197Z,96720.1
2019-03-27T06:32:39.677Z,96721.8
2019-03-27T06:33:42.193Z,96715.5
2019-03-27T06:34:44.690Z,96716.5
2019-03-27T06:35:47.159Z,96719.4
2019-03-27T06:36:49.349Z,96714
2019-03-27T06:37:51.561Z,96716.3
2019-03-27T06:38:53.798Z,96716.5
2019-03-27T06:39:56.301Z,96717.3
2019-03-27T06:40:58.499Z,96717.7
2019-03-27T06:42:00.997Z,96717
2019-03-27T06:43:03.485Z,96721.3
2019-03-27T06:44:05.960Z,96717.3
2019-03-27T06:45:08.441Z,96724
2019-03-27T06:46:10.660Z,96721.6
2019-03-27T06:47:12.588Z,96721.3
2019-03-27T06:49:19.783Z,96723.5
2019-03-27T06:50:22.257Z,96726.4
2019-03-27T06:52:32.206Z,96728.8
2019-03-27T06:53:34.672Z,96727
2019-03-27T06:54:36.302Z,96727
2019-03-27T06:55:38.775Z,96725
2019-03-27T06:56:41.257Z,96729
2019-03-27T06:57:43.720Z,96730.9
2019-03-27T06:59:50.913Z,96728
2019-03-27T07:00:53.137Z,96734.3
2019-03-27T07:01:55.610Z,96730
2019-03-27T07:02:58.105Z,96735
2019-03-27T07:05:05.266Z,96736.7
2019-03-27T07:06:07.733Z,96737.5
2019-03-27T07:07:10.283Z,96735.1
2019-03-27T07:08:12.810Z,96737.2
2019-03-27T07:09:15.303Z,96740.2
2019-03-27T07:10:17.789Z,96734.4
2019-03-27T07:11:19.727Z,96737.9
2019-03-27T07:12:23.127Z,96739.9
2019-03-27T07:13:25.605Z,96740.5
2019-03-27T07:14:28.101Z,96742.1
2019-03-27T07:15:30.573Z,96740.3
2019-03-27T07:16:32.790Z,96742
2019-03-27T07:17:35.267Z,96749.3
2019-03-27T07:19:42.723Z,96748
2019-03-27T07:20:44.927Z,96746.3
2019-03-27T07:21:47.412Z,96746.5
2019-03-27T07:22:49.897Z,96747.7
2019-03-27T07:23:52.374Z,96746.2
2019-03-27T07:24:54.841Z,96749.1
2019-03-27T07:25:57.313Z,96746
2019-03-27T07:26:59.235Z,96749.4
2019-03-27T07:28:01.434Z,96749.3
2019-03-27T07:29:03.923Z,96751.4
2019-03-27T07:30:05.553Z,96751.6
2019-03-27T07:31:08.026Z,96753.2
2019-03-27T07:32:10.219Z,96755.2
2019-03-27T07:33:12.709Z,96752.3
2019-03-27T07:34:15.191Z,96756.7
2019-03-27T07:35:17.674Z,96753.4
2019-03-27T07:36:20.147Z,96759
2019-03-27T07:37:22.620Z,96759.2
2019-03-27T07:38:25.095Z,96759.4
2019-03-27T07:39:27.567Z,96757.1
2019-03-27T07:40:29.782Z,96758.6
2019-03-27T07:41:31.957Z,96760.6
2019-03-27T07:42:34.441Z,96760.3
2019-03-27T07:43:36.911Z,96758.3
2019-03-27T07:44:39.395Z,96764.1
2019-03-27T07:45:41.597Z,96761.5
2019-03-27T07:46:43.871Z,96760.7
2019-03-27T07:49:56.323Z,96762.6
2019-03-27T07:50:58.790Z,96761.8
2019-03-27T07:52:00.723Z,96760.6
2019-03-27T07:53:02.971Z,96762.2
2019-03-27T07:54:05.461Z,96763.4
2019-03-27T07:56:12.644Z,96765.8
2019-03-27T07:57:14.842Z,96765.8
2019-03-27T07:58:16.782Z,96766.8
2019-03-27T07:59:18.970Z,96766.8
2019-03-27T08:00:21.165Z,96764.7
2019-03-27T08:01:23.637Z,96764
2019-03-27T08:02:26.183Z,96766.5
2019-03-27T08:03:28.676Z,96765.7
2019-03-27T08:04:31.324Z,96762.6
2019-03-27T08:05:33.269Z,96765.8
2019-03-27T08:06:35.751Z,96760.6
2019-03-27T08:07:37.949Z,96765.6
2019-03-27T08:08:40.146Z,96763.3
2019-03-27T08:09:41.623Z,96765.8
2019-03-27T08:10:44.099Z,96760.6
2019-03-27T08:11:46.303Z,96762.5
2019-03-27T08:12:48.797Z,96761.4
2019-03-27T08:13:50.996Z,96763.7
2019-03-27T08:14:53.538Z,96764
2019-03-27T08:15:55.475Z,96762.4
2019-03-27T08:16:57.695Z,96766.5
2019-03-27T08:17:59.624Z,96763.9
2019-03-27T08:20:07.066Z,96763.2
2019-03-27T08:21:09.539Z,96757.9
2019-03-27T08:22:11.735Z,96759.3
2019-03-27T08:23:14.211Z,96763.6
2019-03-27T08:24:16.401Z,96762.4
2019-03-27T08:25:18.866Z,96759.5
2019-03-27T08:26:21.360Z,96765.1
2019-03-27T08:27:23.806Z,96762.2
2019-03-27T08:28:26.301Z,96762
2019-03-27T08:29:28.504Z,96762.8
2019-03-27T08:30:30.498Z,96762.9
2019-03-27T08:31:32.983Z,96768.4
2019-03-27T08:33:40.453Z,96769.3
2019-03-27T08:34:42.930Z,96773.7
2019-03-27T08:35:45.424Z,96777.8
2019-03-27T08:36:47.922Z,96781.9
2019-03-27T08:37:50.459Z,96777.4
2019-03-27T08:38:52.927Z,96779.1
2019-03-27T08:39:55.421Z,96779.3
2019-03-27T08:40:57.897Z,96781.1
2019-03-27T08:42:00.358Z,96776.5
2019-03-27T08:43:02.576Z,96777.3
2019-03-27T08:44:05.057Z,96782.2
2019-03-27T08:45:07.651Z,96774.9
2019-03-27T08:46:10.124Z,96781.6
2019-03-27T08:47:12.592Z,96782.5
2019-03-27T08:48:15.069Z,96779.4
2019-03-27T08:50:22.535Z,96775.4
2019-03-27T08:51:25.033Z,96786.5
2019-03-27T08:52:27.226Z,96787.9
2019-03-27T08:53:29.739Z,96789.1
2019-03-27T08:54:32.229Z,96786.1
2019-03-27T08:55:34.705Z,96783.8
2019-03-27T08:56:36.899Z,96786.3
2019-03-27T08:57:39.386Z,96787.2
2019-03-27T08:58:41.567Z,96786.2
2019-03-27T08:59:44.133Z,96785.9
2019-03-27T09:00:46.703Z,96782.1
2019-03-27T09:01:49.180Z,96790.5
2019-03-27T09:02:51.671Z,96791.3
2019-03-27T09:03:54.158Z,96790.1
2019-03-27T09:04:56.622Z,96793.4
2019-03-27T09:05:58.580Z,96793.9
2019-03-27T09:07:01.062Z,96795.3
2019-03-27T09:08:03.524Z,96799.4
2019-03-27T09:09:06.000Z,96800.2
2019-03-27T09:10:08.203Z,96800.8
2019-03-27T09:11:10.396Z,96801.1
2019-03-27T09:12:12.863Z,96797.1
2019-03-27T09:13:14.785Z,96802.9
2019-03-27T09:14:17.266Z,96800.3
2019-03-27T09:15:19.427Z,96802.9
2019-03-27T09:16:21.907Z,96796.3
2019-03-27T09:17:24.387Z,96799
2019-03-27T09:18:26.550Z,96802
2019-03-27T09:20:33.742Z,96803.1
2019-03-27T09:21:36.240Z,96799.2
2019-03-27T09:22:38.707Z,96799.7
2019-03-27T09:23:41.174Z,96805.1
2019-03-27T09:24:43.645Z,96804.4
2019-03-27T09:25:46.128Z,96807.4
2019-03-27T09:26:48.325Z,96809.1
2019-03-27T09:27:50.849Z,96810.1
2019-03-27T09:28:53.335Z,96811.6
2019-03-27T09:29:55.841Z,96815.2
2019-03-27T09:30:58.332Z,96810.6
2019-03-27T09:32:00.810Z,96809.2
2019-03-27T09:33:02.752Z,96810.9
2019-03-27T09:34:04.975Z,96812.6
2019-03-27T09:35:07.445Z,96809.8
2019-03-27T09:36:10.385Z,96808.8
2019-03-27T09:37:13.133Z,96810.8
2019-03-27T09:38:15.612Z,96816.6
2019-03-27T09:39:18.071Z,96817.6
2019-03-27T09:40:20.280Z,96818.8
2019-03-27T09:41:22.901Z,96820.6
2019-03-27T09:42:25.138Z,96822.1
2019-03-27T09:43:27.614Z,96819.9
2019-03-27T09:44:30.084Z,96815.8
2019-03-27T09:45:32.571Z,96820.5
2019-03-27T09:46:34.787Z,96822
2019-03-27T09:47:37.254Z,96818.2
2019-03-27T09:48:39.471Z,96821.8
2019-03-27T09:50:46.989Z,96822.1
2019-03-27T09:51:49.182Z,96822.8
2019-03-27T09:52:51.096Z,96824.7
2019-03-27T09:53:54.882Z,96825.6
2019-03-27T09:54:57.077Z,96819.9
2019-03-27T09:55:59.559Z,96822.2
2019-03-27T09:57:02.021Z,96824.4
2019-03-27T09:58:04.220Z,96822.5
2019-03-27T09:59:07.625Z,96823.7
2019-03-27T10:00:10.110Z,96827.1
2019-03-27T10:01:12.315Z,96832.6
2019-03-27T10:02:14.601Z,96830
2019-03-27T10:03:17.072Z,96830.7
2019-03-27T10:04:19.295Z,96830.8
2019-03-27T10:05:21.791Z,96828
2019-03-27T10:06:23.985Z,96827.7
2019-03-27T10:07:26.473Z,96823.2
2019-03-27T10:08:28.681Z,96825.1
2019-03-27T10:09:30.861Z,96826.8
2019-03-27T10:10:33.326Z,96825.1
2019-03-27T10:11:35.499Z,96824.4
2019-03-27T10:12:37.702Z,96823.8
2019-03-27T10:13:40.226Z,96827.4
2019-03-27T10:14:42.469Z,96824.8
2019-03-27T10:15:44.948Z,96832.3
2019-03-27T10:16:47.443Z,96828.1
2019-03-27T10:17:49.654Z,96824.6
2019-03-27T10:18:52.134Z,96821.1
2019-03-27T10:20:59.328Z,96818.8
2019-03-27T10:22:00.993Z,96822.8
2019-03-27T10:23:03.179Z,96823.8
2019-03-27T10:24:05.658Z,96823.5
2019-03-27T10:25:08.130Z,96826.1
2019-03-27T10:26:10.321Z,96822.1
2019-03-27T10:27:12.265Z,96822.8
2019-03-27T10:28:14.732Z,96824.7
2019-03-27T10:29:16.995Z,96824.9
2019-03-27T10:30:19.474Z,96821.2
2019-03-27T10:31:21.955Z,96824.3
2019-03-27T10:32:24.430Z,96826.6
2019-03-27T10:33:26.905Z,96826.3
2019-03-27T10:34:29.111Z,96825.2
2019-03-27T10:35:31.317Z,96825.3
2019-03-27T10:36:33.530Z,96824.5
2019-03-27T10:37:36.012Z,96823.7
2019-03-27T10:38:41.358Z,96827.5
2019-03-27T10:39:44.676Z,96824.2
2019-03-27T10:40:46.840Z,96826.4
2019-03-27T10:41:49.344Z,96825.3
2019-03-27T10:42:51.559Z,96825
2019-03-27T10:43:54.036Z,96826.6
2019-03-27T10:44:56.256Z,96820.8
2019-03-27T10:45:58.437Z,96822.1
2019-03-27T10:47:00.652Z,96818.8
2019-03-27T10:48:03.116Z,96819.4
2019-03-27T10:49:05.582Z,96817
2019-03-27T10:51:12.774Z,96819.1
2019-03-27T10:52:14.975Z,96820.5
2019-03-27T10:53:17.514Z,96820.1
2019-03-27T10:54:20.004Z,96821.5
2019-03-27T10:55:22.478Z,96822.1
2019-03-27T10:56:24.943Z,96821.1
2019-03-27T10:57:27.137Z,96823.2
2019-03-27T10:58:29.925Z,96823.9
2019-03-27T10:59:32.443Z,96824
2019-03-27T11:00:34.385Z,96823.4
2019-03-27T11:01:36.870Z,96827
2019-03-27T11:02:39.342Z,96827.4
2019-03-27T11:03:40.971Z,96821.9
2019-03-27T11:04:43.184Z,96824.8
2019-03-27T11:05:45.348Z,96824.7
2019-03-27T11:06:47.818Z,96826.5
2019-03-27T11:07:50.366Z,96822.6
2019-03-27T11:08:52.838Z,96821.7
2019-03-27T11:09:55.396Z,96824.9
2019-03-27T11:10:57.890Z,96822.5
2019-03-27T11:12:00.367Z,96828.9
2019-03-27T11:13:02.850Z,96825.6
2019-03-27T11:14:05.074Z,96828.8
2019-03-27T11:15:07.274Z,96830.3
2019-03-27T11:16:09.308Z,96829.4
2019-03-27T11:17:11.787Z,96826.7
2019-03-27T11:18:14.260Z,96828.6
2019-03-27T11:19:16.729Z,96828.3
2019-03-27T11:21:23.978Z,96827.1
2019-03-27T11:22:26.451Z,96829.1
2019-03-27T11:23:28.962Z,96826
2019-03-27T11:24:31.443Z,96824.1
2019-03-27T11:25:34.893Z,96825.1
2019-03-27T11:26:37.357Z,96822.6
2019-03-27T11:27:39.556Z,96823.5
2019-03-27T11:28:42.016Z,96825
2019-03-27T11:29:44.551Z,96821.6
2019-03-27T11:31:51.746Z,96826.2
2019-03-27T11:32:53.503Z,96824.8
2019-03-27T11:33:55.716Z,96820.1
2019-03-27T11:34:57.923Z,96821.5
2019-03-27T11:36:00.410Z,96819.4
2019-03-27T11:37:02.880Z,96819.6
2019-03-27T11:38:05.356Z,96823.8
2019-03-27T11:39:07.820Z,96816.5
2019-03-27T11:40:10.036Z,96816.8
2019-03-27T11:41:13.896Z,96814.3
2019-03-27T11:42:16.093Z,96815.7
2019-03-27T11:43:18.012Z,96819.6
2019-03-27T11:44:20.212Z,96821
2019-03-27T11:45:22.113Z,96819.8
2019-03-27T11:46:24.323Z,96813.8
2019-03-27T11:47:26.522Z,96819
2019-03-27T11:48:28.655Z,96814.8
2019-03-27T11:49:31.182Z,96812.8
2019-03-27T11:51:38.441Z,96816.1
2019-03-27T11:52:40.626Z,96817
2019-03-27T11:53:43.095Z,96818.7
2019-03-27T11:54:45.572Z,96813.8
2019-03-27T11:55:47.500Z,96814.5
2019-03-27T11:56:49.981Z,96816.9
2019-03-27T11:57:52.248Z,96810.7
2019-03-27T11:58:54.730Z,96813.3
2019-03-27T11:59:57.200Z,96813.3
2019-03-27T12:00:59.669Z,96816.7
2019-03-27T12:02:02.134Z,96815.7
2019-03-27T12:03:04.330Z,96814.4
2019-03-27T12:04:06.588Z,96818.1
2019-03-27T12:05:09.074Z,96818.3
2019-03-27T12:06:11.541Z,96814.4
2019-03-27T12:07:14.007Z,96811.3
2019-03-27T12:08:16.184Z,96810.8
2019-03-27T12:09:18.663Z,96814.5
2019-03-27T12:10:21.132Z,96811.7
2019-03-27T12:11:23.613Z,96812.2
2019-03-27T12:12:25.800Z,96808.3
2019-03-27T12:13:28.292Z,96807.3
2019-03-27T12:14:30.763Z,96810.6
2019-03-27T12:15:33.232Z,96813.1
2019-03-27T12:16:35.443Z,96805.7
2019-03-27T12:17:37.912Z,96810.2
2019-03-27T12:18:40.112Z,96811.6
2019-03-27T12:19:42.581Z,96807.3
2019-03-27T12:21:50.538Z,96802.7
2019-03-27T12:23:57.422Z,96804.4
2019-03-27T12:24:59.088Z,96805.8
2019-03-27T12:26:01.581Z,96803.7
2019-03-27T12:27:04.054Z,96803.6
2019-03-27T12:28:06.347Z,96804
2019-03-27T12:29:08.558Z,96804.1
2019-03-27T12:30:10.787Z,96804.8
2019-03-27T12:31:12.981Z,96803.6
2019-03-27T12:32:15.174Z,96802.1
2019-03-27T12:33:17.672Z,96804.4
2019-03-27T12:34:19.604Z,96804.2
2019-03-27T12:35:22.080Z,96802.9
2019-03-27T12:36:24.283Z,96799.7
2019-03-27T12:37:26.743Z,96800
2019-03-27T12:38:29.214Z,96797.7
2019-03-27T12:39:31.765Z,96796.7
2019-03-27T12:40:33.964Z,96796.5
2019-03-27T12:41:35.891Z,96797.5
2019-03-27T12:42:38.370Z,96792.9
2019-03-27T12:43:40.840Z,96792.5
2019-03-27T12:44:43.332Z,96790.8
2019-03-27T12:45:45.816Z,96789.8
2019-03-27T12:46:48.297Z,96790.5
2019-03-27T12:47:55.244Z,96785.9
2019-03-27T12:48:57.435Z,96791
2019-03-27T12:49:59.626Z,96789.5
2019-03-27T12:52:07.331Z,96789.1
2019-03-27T12:53:09.864Z,96790.5
2019-03-27T12:54:12.352Z,96786.6
2019-03-27T12:55:14.822Z,96787.6
2019-03-27T12:56:17.295Z,96790.6
2019-03-27T12:57:19.764Z,96786
2019-03-27T12:58:21.970Z,96787
2019-03-27T12:59:24.433Z,96786.5
2019-03-27T13:00:26.659Z,96785
2019-03-27T13:01:28.902Z,96786.6
2019-03-27T13:02:31.113Z,96786.2
2019-03-27T13:03:33.595Z,96787.3
2019-03-27T13:04:36.189Z,96786.9
2019-03-27T13:05:38.359Z,96785.1
2019-03-27T13:06:40.967Z,96787.8
2019-03-27T13:09:52.937Z,96782.9
2019-03-27T13:10:55.425Z,96783.9